createdAt,value
2018-12-19T00:00:53.664Z,0
2018-12-19T00:01:53.651Z,0
2018-12-19T00:02:53.634Z,0
2018-12-19T00:03:53.614Z,0
2018-12-19T00:04:53.601Z,0
2018-12-19T00:05:53.578Z,0
2018-12-19T00:06:53.568Z,0
2018-12-19T00:07:53.547Z,0
2018-12-19T00:08:53.531Z,0
2018-12-19T00:09:53.512Z,0
2018-12-19T00:10:53.499Z,0
2018-12-19T00:11:53.481Z,0
2018-12-19T00:12:53.471Z,0
2018-12-19T00:13:53.453Z,0
2018-12-19T00:14:53.428Z,0
2018-12-19T00:15:53.411Z,0
2018-12-19T00:16:53.404Z,0
2018-12-19T00:17:53.385Z,0
2018-12-19T00:18:53.362Z,0
2018-12-19T00:19:53.348Z,0
2018-12-19T00:20:53.331Z,0
2018-12-19T00:21:53.313Z,0
2018-12-19T00:22:53.295Z,0
2018-12-19T00:23:53.280Z,0
2018-12-19T00:24:53.260Z,0
2018-12-19T00:25:53.250Z,0
2018-12-19T00:26:53.230Z,0
2018-12-19T00:27:53.215Z,0
2018-12-19T00:28:53.194Z,0
2018-12-19T00:29:53.183Z,0
2018-12-19T00:30:53.160Z,0
2018-12-19T00:31:53.142Z,0
2018-12-19T00:32:53.127Z,0
2018-12-19T00:33:53.111Z,0
2018-12-19T00:34:53.096Z,0
2018-12-19T00:35:53.107Z,0
2018-12-19T00:36:53.059Z,0
2018-12-19T00:37:53.049Z,0
2018-12-19T00:38:53.028Z,0
2018-12-19T00:39:53.011Z,0
2018-12-19T00:40:52.991Z,0
2018-12-19T00:41:52.987Z,0
2018-12-19T00:42:52.964Z,0
2018-12-19T00:43:52.944Z,0
2018-12-19T00:44:52.931Z,0
2018-12-19T00:45:52.907Z,0
2018-12-19T00:46:52.897Z,0
2018-12-19T00:47:52.879Z,0
2018-12-19T00:48:52.857Z,0
2018-12-19T00:49:53.325Z,0
2018-12-19T00:50:52.826Z,0
2018-12-19T00:51:52.811Z,0
2018-12-19T00:52:52.791Z,0
2018-12-19T00:53:52.780Z,0
2018-12-19T00:54:52.760Z,0
2018-12-19T00:55:52.741Z,0
2018-12-19T00:56:52.725Z,0
2018-12-19T00:57:52.705Z,0
2018-12-19T00:58:52.698Z,0
2018-12-19T00:59:52.671Z,0
2018-12-19T01:00:52.657Z,0
2018-12-19T01:01:52.641Z,0
2018-12-19T01:02:52.622Z,0
2018-12-19T01:03:52.610Z,0
2018-12-19T01:04:55.343Z,0
2018-12-19T01:05:52.579Z,0
2018-12-19T01:06:52.562Z,0
2018-12-19T01:07:52.544Z,0
2018-12-19T01:08:52.521Z,0
2018-12-19T01:09:52.512Z,0
2018-12-19T01:10:52.494Z,0
2018-12-19T01:11:52.474Z,0
2018-12-19T01:12:52.459Z,0
2018-12-19T01:13:52.438Z,0
2018-12-19T01:14:52.423Z,0
2018-12-19T01:15:52.402Z,0
2018-12-19T01:16:52.388Z,0
2018-12-19T01:17:52.369Z,0
2018-12-19T01:18:52.357Z,0
2018-12-19T01:19:52.401Z,0
2018-12-19T01:20:52.320Z,0
2018-12-19T01:21:52.312Z,0
2018-12-19T01:22:52.284Z,0
2018-12-19T01:23:52.267Z,0
2018-12-19T01:24:52.248Z,0
2018-12-19T01:25:52.238Z,0
2018-12-19T01:26:52.224Z,0
2018-12-19T01:27:52.202Z,0
2018-12-19T01:28:52.184Z,0
2018-12-19T01:29:52.168Z,0
2018-12-19T01:30:52.154Z,0
2018-12-19T01:31:52.134Z,0
2018-12-19T01:32:52.123Z,0
2018-12-19T01:33:52.104Z,0
2018-12-19T01:34:52.090Z,0
2018-12-19T01:35:52.068Z,0
2018-12-19T01:36:52.063Z,0
2018-12-19T01:37:52.033Z,0
2018-12-19T01:38:52.022Z,0
2018-12-19T01:39:52.004Z,0
2018-12-19T01:40:51.991Z,0
2018-12-19T01:41:51.968Z,0
2018-12-19T01:42:51.945Z,0
2018-12-19T01:43:51.933Z,0
2018-12-19T01:44:51.911Z,0
2018-12-19T01:45:51.914Z,0
2018-12-19T01:46:51.876Z,0
2018-12-19T01:47:51.861Z,0
2018-12-19T01:48:51.854Z,0
2018-12-19T01:49:51.834Z,0
2018-12-19T01:50:51.815Z,0
2018-12-19T01:51:51.795Z,0
2018-12-19T01:52:51.776Z,0
2018-12-19T01:53:51.760Z,0
2018-12-19T01:54:51.797Z,0
2018-12-19T01:55:51.726Z,0
2018-12-19T01:56:51.710Z,0
2018-12-19T01:57:51.697Z,0
2018-12-19T01:58:51.675Z,0
2018-12-19T01:59:51.664Z,0
2018-12-19T02:00:51.648Z,0
2018-12-19T02:01:51.627Z,0
2018-12-19T02:02:51.607Z,0
2018-12-19T02:03:51.591Z,0
2018-12-19T02:04:51.569Z,0
2018-12-19T02:05:51.557Z,0
2018-12-19T02:06:51.543Z,0
2018-12-19T02:07:51.528Z,0
2018-12-19T02:08:51.507Z,0
2018-12-19T02:09:51.490Z,0
2018-12-19T02:10:51.471Z,0
2018-12-19T02:11:51.456Z,0
2018-12-19T02:12:51.438Z,0
2018-12-19T02:13:51.423Z,0
2018-12-19T02:14:51.475Z,0
2018-12-19T02:15:51.392Z,0
2018-12-19T02:16:51.368Z,0
2018-12-19T02:17:51.363Z,0
2018-12-19T02:18:51.333Z,0
2018-12-19T02:19:51.317Z,0
2018-12-19T02:20:51.306Z,0
2018-12-19T02:21:51.284Z,0
2018-12-19T02:22:51.272Z,0
2018-12-19T02:23:51.258Z,0
2018-12-19T02:24:51.234Z,0
2018-12-19T02:25:51.217Z,0
2018-12-19T02:26:51.199Z,0
2018-12-19T02:27:51.191Z,0
2018-12-19T02:28:51.168Z,0
2018-12-19T02:29:51.152Z,0
2018-12-19T02:30:51.132Z,0
2018-12-19T02:31:51.128Z,0
2018-12-19T02:32:51.102Z,0
2018-12-19T02:33:51.084Z,0
2018-12-19T02:34:51.066Z,0
2018-12-19T02:35:51.049Z,0
2018-12-19T02:36:51.032Z,0
2018-12-19T02:37:51.011Z,0
2018-12-19T02:38:51.019Z,0
2018-12-19T02:39:50.985Z,0
2018-12-19T02:40:50.978Z,0
2018-12-19T02:41:50.944Z,0
2018-12-19T02:42:50.954Z,0
2018-12-19T02:43:50.933Z,0
2018-12-19T02:44:50.658Z,0
2018-12-19T02:45:50.882Z,0
2018-12-19T02:46:50.861Z,0
2018-12-19T02:47:50.851Z,0
2018-12-19T02:48:50.826Z,0
2018-12-19T02:49:50.811Z,0
2018-12-19T02:50:50.794Z,0
2018-12-19T02:51:50.775Z,0
2018-12-19T02:52:50.758Z,0
2018-12-19T02:53:50.747Z,0
2018-12-19T02:54:50.726Z,0
2018-12-19T02:55:50.709Z,0
2018-12-19T02:56:50.697Z,0
2018-12-19T02:57:50.677Z,0
2018-12-19T02:58:50.659Z,0
2018-12-19T02:59:50.640Z,0
2018-12-19T03:00:50.624Z,0
2018-12-19T03:01:50.611Z,0
2018-12-19T03:02:50.363Z,0
2018-12-19T03:03:50.581Z,0
2018-12-19T03:04:50.563Z,0
2018-12-19T03:05:50.539Z,0
2018-12-19T03:06:50.281Z,0
2018-12-19T03:07:50.528Z,0
2018-12-19T03:08:50.502Z,0
2018-12-19T03:09:50.479Z,0
2018-12-19T03:10:50.464Z,0
2018-12-19T03:11:50.446Z,0
2018-12-19T03:12:50.427Z,0
2018-12-19T03:13:50.410Z,0
2018-12-19T03:14:50.390Z,0
2018-12-19T03:15:50.383Z,0
2018-12-19T03:16:50.353Z,0
2018-12-19T03:17:50.351Z,0
2018-12-19T03:18:50.334Z,0
2018-12-19T03:19:50.299Z,0
2018-12-19T03:20:50.285Z,0
2018-12-19T03:21:50.266Z,0
2018-12-19T03:22:50.006Z,0
2018-12-19T03:23:50.236Z,0
2018-12-19T03:24:50.222Z,0
2018-12-19T03:25:50.204Z,0
2018-12-19T03:26:50.187Z,0
2018-12-19T03:27:50.176Z,0
2018-12-19T03:28:50.156Z,0
2018-12-19T03:29:50.135Z,0
2018-12-19T03:30:50.150Z,0
2018-12-19T03:31:50.115Z,0
2018-12-19T03:32:50.098Z,0
2018-12-19T03:33:50.077Z,0
2018-12-19T03:34:50.052Z,0
2018-12-19T03:35:50.032Z,0
2018-12-19T03:36:50.027Z,0
2018-12-19T03:37:49.996Z,0
2018-12-19T03:38:49.981Z,0
2018-12-19T03:39:57.180Z,0
2018-12-19T03:40:49.963Z,0
2018-12-19T03:41:49.934Z,0
2018-12-19T03:42:49.676Z,0
2018-12-19T03:43:49.652Z,0
2018-12-19T03:44:49.889Z,0
2018-12-19T03:45:49.863Z,0
2018-12-19T03:46:49.853Z,0
2018-12-19T03:47:49.836Z,0
2018-12-19T03:48:49.810Z,0
2018-12-19T03:49:49.818Z,0
2018-12-19T03:50:49.780Z,0
2018-12-19T03:51:49.761Z,0
2018-12-19T03:52:49.517Z,0
2018-12-19T03:53:49.739Z,0
2018-12-19T03:54:49.712Z,0
2018-12-19T03:55:49.698Z,0
2018-12-19T03:56:49.673Z,0
2018-12-19T03:57:49.662Z,0
2018-12-19T03:58:49.642Z,0
2018-12-19T03:59:49.640Z,0
2018-12-19T04:00:49.612Z,0
2018-12-19T04:01:49.623Z,0
2018-12-19T04:02:49.573Z,0
2018-12-19T04:03:49.567Z,0
2018-12-19T04:04:49.545Z,0
2018-12-19T04:05:49.286Z,0
2018-12-19T04:06:49.511Z,0
2018-12-19T04:07:49.325Z,0
2018-12-19T04:08:49.474Z,0
2018-12-19T04:09:49.470Z,0
2018-12-19T04:10:49.457Z,0
2018-12-19T04:11:49.197Z,0
2018-12-19T04:12:49.405Z,0
2018-12-19T04:13:49.391Z,0
2018-12-19T04:14:49.372Z,0
2018-12-19T04:15:49.416Z,0
2018-12-19T04:16:49.431Z,0
2018-12-19T04:17:49.326Z,0
2018-12-19T04:18:49.325Z,0
2018-12-19T04:19:49.295Z,0
2018-12-19T04:20:49.322Z,0
2018-12-19T04:21:49.260Z,0
2018-12-19T04:22:49.247Z,0
2018-12-19T04:23:49.223Z,0
2018-12-19T04:24:49.224Z,0
2018-12-19T04:25:49.201Z,0
2018-12-19T04:26:49.172Z,0
2018-12-19T04:27:49.155Z,0
2018-12-19T04:28:49.146Z,0
2018-12-19T04:29:49.127Z,0
2018-12-19T04:30:49.111Z,0
2018-12-19T04:31:49.093Z,0
2018-12-19T04:32:49.070Z,0
2018-12-19T04:33:49.056Z,0
2018-12-19T04:34:49.041Z,0
2018-12-19T04:35:49.022Z,0
2018-12-19T04:36:49.005Z,0
2018-12-19T04:37:48.991Z,0
2018-12-19T04:38:48.970Z,0
2018-12-19T04:39:48.958Z,0
2018-12-19T04:40:48.973Z,0
2018-12-19T04:41:48.925Z,0
2018-12-19T04:42:48.914Z,0
2018-12-19T04:43:48.893Z,0
2018-12-19T04:44:48.880Z,0
2018-12-19T04:45:48.852Z,0
2018-12-19T04:46:48.856Z,0
2018-12-19T04:47:48.823Z,0
2018-12-19T04:48:48.800Z,0
2018-12-19T04:49:48.793Z,0
2018-12-19T04:50:48.783Z,0
2018-12-19T04:51:48.756Z,0
2018-12-19T04:52:48.735Z,0
2018-12-19T04:53:48.727Z,0
2018-12-19T04:54:48.708Z,0
2018-12-19T04:55:48.757Z,0
2018-12-19T04:56:48.677Z,0
2018-12-19T04:57:48.695Z,0
2018-12-19T04:58:48.638Z,0
2018-12-19T04:59:48.629Z,0
2018-12-19T05:00:48.360Z,0
2018-12-19T05:01:48.586Z,0
2018-12-19T05:02:48.568Z,0
2018-12-19T05:03:48.558Z,0
2018-12-19T05:04:48.537Z,0
2018-12-19T05:05:48.534Z,0
2018-12-19T05:06:48.539Z,0
2018-12-19T05:07:48.488Z,0
2018-12-19T05:08:48.466Z,0
2018-12-19T05:09:48.456Z,0
2018-12-19T05:10:48.440Z,0
2018-12-19T05:11:48.424Z,0
2018-12-19T05:12:48.401Z,0
2018-12-19T05:13:48.390Z,0
2018-12-19T05:14:48.450Z,0
2018-12-19T05:15:48.351Z,0
2018-12-19T05:16:48.345Z,0
2018-12-19T05:17:48.322Z,0
2018-12-19T05:18:48.305Z,0
2018-12-19T05:19:48.298Z,0
2018-12-19T05:20:48.269Z,0
2018-12-19T05:21:48.252Z,0
2018-12-19T05:22:48.237Z,0
2018-12-19T05:23:48.221Z,0
2018-12-19T05:24:48.233Z,0
2018-12-19T05:25:48.187Z,0
2018-12-19T05:26:48.166Z,0
2018-12-19T05:27:48.154Z,0
2018-12-19T05:28:48.137Z,0
2018-12-19T05:29:48.116Z,0
2018-12-19T05:30:48.099Z,0
2018-12-19T05:31:48.087Z,0
2018-12-19T05:32:48.065Z,0
2018-12-19T05:33:48.057Z,0
2018-12-19T05:34:48.035Z,0
2018-12-19T05:35:48.015Z,0
2018-12-19T05:36:48.006Z,0
2018-12-19T05:37:47.986Z,0
2018-12-19T05:38:47.968Z,0
2018-12-19T05:39:47.953Z,0
2018-12-19T05:40:47.933Z,0
2018-12-19T05:41:47.917Z,0
2018-12-19T05:42:47.899Z,0
2018-12-19T05:43:47.641Z,0
2018-12-19T05:44:47.872Z,0
2018-12-19T05:45:47.850Z,0
2018-12-19T05:46:47.831Z,0
2018-12-19T05:47:47.823Z,0
2018-12-19T05:48:47.804Z,0
2018-12-19T05:49:47.555Z,0
2018-12-19T05:50:47.768Z,0
2018-12-19T05:51:47.814Z,0
2018-12-19T05:52:47.735Z,0
2018-12-19T05:53:47.717Z,0
2018-12-19T05:54:47.701Z,0
2018-12-19T05:55:47.686Z,0
2018-12-19T05:56:47.670Z,0
2018-12-19T05:57:47.659Z,0
2018-12-19T05:58:47.635Z,0
2018-12-19T05:59:47.626Z,0
2018-12-19T06:00:47.638Z,0
2018-12-19T06:01:47.586Z,0
2018-12-19T06:02:47.571Z,0
2018-12-19T06:03:47.549Z,0
2018-12-19T06:04:47.540Z,0
2018-12-19T06:05:47.525Z,0
2018-12-19T06:06:47.498Z,0
2018-12-19T06:07:48.433Z,0
2018-12-19T06:08:47.467Z,0
2018-12-19T06:09:47.450Z,0
2018-12-19T06:10:47.443Z,0
2018-12-19T06:11:47.420Z,0
2018-12-19T06:12:47.407Z,0
2018-12-19T06:13:47.384Z,0
2018-12-19T06:14:47.373Z,0
2018-12-19T06:15:47.349Z,0
2018-12-19T06:16:47.336Z,20
2018-12-19T06:17:47.320Z,36
2018-12-19T06:18:47.305Z,36
2018-12-19T06:19:47.288Z,40
2018-12-19T06:20:47.279Z,40
2018-12-19T06:21:47.253Z,40
2018-12-19T06:22:47.242Z,40
2018-12-19T06:23:47.219Z,40
2018-12-19T06:24:47.201Z,40
2018-12-19T06:25:47.189Z,40
2018-12-19T06:26:47.172Z,40
2018-12-19T06:27:47.153Z,40
2018-12-19T06:28:47.143Z,40
2018-12-19T06:29:47.124Z,40
2018-12-19T06:30:47.107Z,40
2018-12-19T06:31:47.086Z,44
2018-12-19T06:32:47.068Z,40
2018-12-19T06:33:47.052Z,44
2018-12-19T06:34:47.041Z,44
2018-12-19T06:35:47.025Z,40
2018-12-19T06:36:47.003Z,44
2018-12-19T06:37:46.987Z,44
2018-12-19T06:38:46.970Z,44
2018-12-19T06:39:46.954Z,44
2018-12-19T06:40:46.936Z,44
2018-12-19T06:41:46.924Z,48
2018-12-19T06:42:46.905Z,44
2018-12-19T06:43:46.886Z,48
2018-12-19T06:44:46.872Z,48
2018-12-19T06:45:46.609Z,52
2018-12-19T06:46:46.837Z,52
2018-12-19T06:47:46.825Z,56
2018-12-19T06:48:46.805Z,56
2018-12-19T06:49:46.789Z,60
2018-12-19T06:50:46.775Z,60
2018-12-19T06:51:46.763Z,64
2018-12-19T06:52:46.743Z,72
2018-12-19T06:53:46.732Z,76
2018-12-19T06:54:46.703Z,84
2018-12-19T06:55:46.689Z,96
2018-12-19T06:56:46.669Z,100
2018-12-19T06:57:46.659Z,112
2018-12-19T06:58:46.640Z,124
2018-12-19T06:59:46.622Z,136
2018-12-19T07:00:46.607Z,152
2018-12-19T07:01:46.591Z,160
2018-12-19T07:02:46.577Z,164
2018-12-19T07:03:46.555Z,168
2018-12-19T07:04:46.538Z,168
2018-12-19T07:05:46.522Z,172
2018-12-19T07:06:46.506Z,180
2018-12-19T07:07:46.493Z,188
2018-12-19T07:08:46.494Z,200
2018-12-19T07:09:46.456Z,216
2018-12-19T07:10:46.498Z,228
2018-12-19T07:11:46.449Z,240
2018-12-19T07:12:46.410Z,252
2018-12-19T07:13:46.398Z,264
2018-12-19T07:14:46.413Z,280
2018-12-19T07:15:46.363Z,296
2018-12-19T07:16:50.595Z,312
2018-12-19T07:17:46.326Z,328
2018-12-19T07:18:46.314Z,352
2018-12-19T07:19:46.297Z,376
2018-12-19T07:20:46.287Z,400
2018-12-19T07:21:46.274Z,428
2018-12-19T07:22:46.250Z,456
2018-12-19T07:23:46.234Z,488
2018-12-19T07:24:46.224Z,524
2018-12-19T07:25:46.200Z,552
2018-12-19T07:26:46.182Z,592
2018-12-19T07:27:46.172Z,628
2018-12-19T07:28:46.149Z,664
2018-12-19T07:29:46.139Z,708
2018-12-19T07:30:46.119Z,748
2018-12-19T07:31:46.100Z,788
2018-12-19T07:32:46.114Z,828
2018-12-19T07:33:46.070Z,868
2018-12-19T07:34:51.429Z,916
2018-12-19T07:35:46.034Z,952
2018-12-19T07:36:46.073Z,996
2018-12-19T07:37:46.012Z,1036
2018-12-19T07:38:45.992Z,1076
2018-12-19T07:39:45.977Z,1120
2018-12-19T07:40:50.480Z,1164
2018-12-19T07:41:45.938Z,1200
2018-12-19T07:42:45.685Z,1244
2018-12-19T07:43:45.907Z,1288
2018-12-19T07:44:45.892Z,1332
2018-12-19T07:45:45.876Z,1376
2018-12-19T07:46:45.858Z,1416
2018-12-19T07:47:45.849Z,1460
2018-12-19T07:48:45.829Z,1492
2018-12-19T07:49:46.116Z,1528
2018-12-19T07:50:45.793Z,1564
2018-12-19T07:51:45.778Z,1608
2018-12-19T07:52:45.761Z,1648
2018-12-19T07:53:45.748Z,1688
2018-12-19T07:54:45.739Z,1728
2018-12-19T07:55:45.713Z,1764
2018-12-19T07:56:45.700Z,1804
2018-12-19T07:57:45.684Z,1844
2018-12-19T07:58:45.679Z,1884
2018-12-19T07:59:45.659Z,1928
2018-12-19T08:00:45.643Z,1980
2018-12-19T08:01:45.616Z,2024
2018-12-19T08:02:45.610Z,2076
2018-12-19T08:03:45.653Z,2124
2018-12-19T08:04:45.584Z,2172
2018-12-19T08:05:45.557Z,2224
2018-12-19T08:06:45.585Z,2268
2018-12-19T08:07:45.532Z,2312
2018-12-19T08:08:45.518Z,2344
2018-12-19T08:09:45.500Z,2372
2018-12-19T08:10:45.476Z,2396
2018-12-19T08:11:45.473Z,2412
2018-12-19T08:12:45.445Z,2420
2018-12-19T08:13:45.434Z,2436
2018-12-19T08:14:45.422Z,2440
2018-12-19T08:15:45.406Z,2488
2018-12-19T08:16:45.391Z,2488
2018-12-19T08:17:45.372Z,2484
2018-12-19T08:18:45.363Z,2484
2018-12-19T08:19:45.341Z,2552
2018-12-19T08:20:45.323Z,2568
2018-12-19T08:21:45.068Z,2612
2018-12-19T08:22:45.306Z,2652
2018-12-19T08:23:45.275Z,2700
2018-12-19T08:24:45.267Z,2748
2018-12-19T08:25:45.246Z,2788
2018-12-19T08:26:45.228Z,2824
2018-12-19T08:27:45.225Z,2840
2018-12-19T08:28:45.198Z,2860
2018-12-19T08:29:45.183Z,2872
2018-12-19T08:30:45.419Z,2892
2018-12-19T08:31:45.157Z,2924
2018-12-19T08:32:45.141Z,2968
2018-12-19T08:33:45.121Z,3008
2018-12-19T08:34:45.110Z,3020
2018-12-19T08:35:45.092Z,3044
2018-12-19T08:36:45.077Z,3068
2018-12-19T08:37:45.060Z,3076
2018-12-19T08:38:45.112Z,3088
2018-12-19T08:39:45.035Z,3096
2018-12-19T08:40:45.014Z,3124
2018-12-19T08:41:45.009Z,3148
2018-12-19T08:42:44.985Z,3176
2018-12-19T08:43:44.972Z,3192
2018-12-19T08:44:44.960Z,3204
2018-12-19T08:45:44.949Z,3204
2018-12-19T08:46:44.935Z,3216
2018-12-19T08:47:44.910Z,3244
2018-12-19T08:48:44.896Z,3256
2018-12-19T08:49:44.878Z,3268
2018-12-19T08:50:44.869Z,3284
2018-12-19T08:51:44.851Z,3308
2018-12-19T08:52:44.838Z,3336
2018-12-19T08:53:44.817Z,3360
2018-12-19T08:54:44.805Z,3392
2018-12-19T08:55:44.796Z,3420
2018-12-19T08:56:44.775Z,3460
2018-12-19T08:57:44.762Z,3512
2018-12-19T08:58:44.754Z,3560
2018-12-19T08:59:44.744Z,3636
2018-12-19T09:00:44.714Z,3704
2018-12-19T09:01:44.697Z,3776
2018-12-19T09:02:44.747Z,3824
2018-12-19T09:03:44.667Z,3852
2018-12-19T09:04:44.655Z,3864
2018-12-19T09:05:44.642Z,3872
2018-12-19T09:06:44.628Z,3900
2018-12-19T09:07:44.616Z,3924
2018-12-19T09:08:44.597Z,3952
2018-12-19T09:09:44.597Z,3984
2018-12-19T09:10:44.562Z,4016
2018-12-19T09:11:44.560Z,4044
2018-12-19T09:12:44.536Z,4052
2018-12-19T09:13:44.533Z,4044
2018-12-19T09:14:44.510Z,4028
2018-12-19T09:15:44.490Z,3996
2018-12-19T09:16:44.480Z,3960
2018-12-19T09:17:44.468Z,3920
2018-12-19T09:18:44.453Z,3892
2018-12-19T09:19:44.432Z,3864
2018-12-19T09:20:44.422Z,3872
2018-12-19T09:21:44.399Z,3884
2018-12-19T09:22:44.389Z,3912
2018-12-19T09:23:44.371Z,3944
2018-12-19T09:24:44.360Z,3972
2018-12-19T09:25:44.343Z,3992
2018-12-19T09:26:44.331Z,4004
2018-12-19T09:27:44.320Z,4004
2018-12-19T09:28:44.303Z,4004
2018-12-19T09:29:44.296Z,4012
2018-12-19T09:30:44.268Z,4012
2018-12-19T09:31:44.255Z,4000
2018-12-19T09:32:44.238Z,3976
2018-12-19T09:33:44.242Z,3952
2018-12-19T09:34:44.207Z,3924
2018-12-19T09:35:44.203Z,3896
2018-12-19T09:36:44.179Z,3864
2018-12-19T09:37:44.163Z,3824
2018-12-19T09:38:45.715Z,3792
2018-12-19T09:39:44.130Z,3772
2018-12-19T09:40:44.123Z,3748
2018-12-19T09:41:44.118Z,3712
2018-12-19T09:42:44.091Z,3644
2018-12-19T09:43:44.084Z,3632
2018-12-19T09:44:44.060Z,3612
2018-12-19T09:45:44.047Z,3588
2018-12-19T09:46:44.036Z,3572
2018-12-19T09:47:44.021Z,3548
2018-12-19T09:48:44.009Z,3536
2018-12-19T09:49:44.238Z,3536
2018-12-19T09:50:43.968Z,3520
2018-12-19T09:51:43.957Z,3516
2018-12-19T09:52:43.951Z,3528
2018-12-19T09:53:43.933Z,3560
2018-12-19T09:54:43.911Z,3608
2018-12-19T09:55:43.899Z,3676
2018-12-19T09:56:43.885Z,3748
2018-12-19T09:57:43.871Z,3820
2018-12-19T09:58:43.863Z,3900
2018-12-19T09:59:43.840Z,3968
2018-12-19T10:00:43.823Z,4052
2018-12-19T10:01:43.811Z,4112
2018-12-19T10:02:44.587Z,4164
2018-12-19T10:03:43.781Z,4208
2018-12-19T10:04:43.763Z,4244
2018-12-19T10:05:43.755Z,4272
2018-12-19T10:06:43.741Z,4308
2018-12-19T10:07:43.729Z,4368
2018-12-19T10:08:43.705Z,4444
2018-12-19T10:09:43.696Z,4540
2018-12-19T10:10:43.678Z,4632
2018-12-19T10:11:43.666Z,4720
2018-12-19T10:12:43.659Z,4768
2018-12-19T10:13:43.637Z,4800
2018-12-19T10:14:43.620Z,4816
2018-12-19T10:15:43.610Z,4836
2018-12-19T10:16:43.592Z,4864
2018-12-19T10:17:48.123Z,4888
2018-12-19T10:18:43.563Z,4932
2018-12-19T10:19:43.553Z,4988
2018-12-19T10:20:43.785Z,5056
2018-12-19T10:21:43.520Z,5124
2018-12-19T10:22:43.505Z,5192
2018-12-19T10:23:43.496Z,5268
2018-12-19T10:24:43.477Z,5372
2018-12-19T10:25:43.464Z,5492
2018-12-19T10:26:43.446Z,5624
2018-12-19T10:27:43.434Z,5748
2018-12-19T10:28:43.421Z,5844
2018-12-19T10:29:43.407Z,5884
2018-12-19T10:30:43.397Z,5864
2018-12-19T10:31:43.373Z,5812
2018-12-19T10:32:43.369Z,5776
2018-12-19T10:33:43.347Z,5736
2018-12-19T10:34:43.340Z,5716
2018-12-19T10:35:43.322Z,5724
2018-12-19T10:36:43.305Z,5768
2018-12-19T10:37:43.297Z,5840
2018-12-19T10:38:43.336Z,5904
2018-12-19T10:39:43.262Z,5952
2018-12-19T10:40:43.249Z,5988
2018-12-19T10:41:43.239Z,6024
2018-12-19T10:42:43.232Z,6076
2018-12-19T10:43:44.185Z,6096
2018-12-19T10:44:43.200Z,6112
2018-12-19T10:45:43.183Z,6132
2018-12-19T10:46:43.218Z,6152
2018-12-19T10:47:43.157Z,6148
2018-12-19T10:48:43.141Z,6136
2018-12-19T10:49:43.154Z,6132
2018-12-19T10:50:43.110Z,6116
2018-12-19T10:51:43.357Z,6108
2018-12-19T10:52:43.087Z,6080
2018-12-19T10:53:43.077Z,6028
2018-12-19T10:54:43.062Z,5960
2018-12-19T10:55:43.045Z,5860
2018-12-19T10:56:43.031Z,5756
2018-12-19T10:57:43.023Z,5660
2018-12-19T10:58:43.005Z,5540
2018-12-19T10:59:43.002Z,5460
2018-12-19T11:00:42.982Z,5428
2018-12-19T11:01:42.964Z,5440
2018-12-19T11:02:42.958Z,5492
2018-12-19T11:03:42.941Z,5588
2018-12-19T11:04:42.928Z,5736
2018-12-19T11:05:42.914Z,5868
2018-12-19T11:06:42.898Z,5992
2018-12-19T11:07:42.890Z,6072
2018-12-19T11:08:42.877Z,6092
2018-12-19T11:09:42.858Z,6080
2018-12-19T11:10:42.865Z,6048
2018-12-19T11:11:42.836Z,5988
2018-12-19T11:12:42.817Z,5948
2018-12-19T11:13:42.811Z,5936
2018-12-19T11:14:42.819Z,5920
2018-12-19T11:15:42.784Z,5844
2018-12-19T11:16:42.768Z,5764
2018-12-19T11:17:42.764Z,5672
2018-12-19T11:18:42.747Z,5584
2018-12-19T11:19:42.740Z,5524
2018-12-19T11:20:42.712Z,5508
2018-12-19T11:21:42.702Z,5520
2018-12-19T11:22:42.689Z,5512
2018-12-19T11:23:42.674Z,5476
2018-12-19T11:24:42.667Z,5420
2018-12-19T11:25:42.650Z,5336
2018-12-19T11:26:42.634Z,5276
2018-12-19T11:27:42.622Z,5140
2018-12-19T11:28:42.608Z,4936
2018-12-19T11:29:42.610Z,4720
2018-12-19T11:30:42.578Z,4512
2018-12-19T11:31:42.569Z,4328
2018-12-19T11:32:42.557Z,4180
2018-12-19T11:33:42.542Z,4092
2018-12-19T11:34:42.562Z,4048
2018-12-19T11:35:42.523Z,4044
2018-12-19T11:36:42.504Z,4040
2018-12-19T11:37:42.249Z,4048
2018-12-19T11:38:42.478Z,4068
2018-12-19T11:39:42.460Z,4104
2018-12-19T11:40:42.467Z,4116
2018-12-19T11:41:46.199Z,4108
2018-12-19T11:42:42.420Z,4116
2018-12-19T11:43:42.406Z,4156
2018-12-19T11:44:42.394Z,4188
2018-12-19T11:45:42.382Z,4208
2018-12-19T11:46:42.429Z,4196
2018-12-19T11:47:42.360Z,4156
2018-12-19T11:48:42.378Z,4192
2018-12-19T11:49:42.371Z,4244
2018-12-19T11:50:42.314Z,4292
2018-12-19T11:51:42.304Z,4272
2018-12-19T11:52:42.288Z,4180
2018-12-19T11:53:42.278Z,4060
2018-12-19T11:54:42.309Z,3964
2018-12-19T11:55:42.255Z,3876
2018-12-19T11:56:42.235Z,3836
2018-12-19T11:57:42.226Z,3808
2018-12-19T11:58:42.210Z,3744
2018-12-19T11:59:42.194Z,3636
2018-12-19T12:00:42.191Z,3556
2018-12-19T12:01:48.425Z,3560
2018-12-19T12:02:42.161Z,3668
2018-12-19T12:03:42.153Z,3840
2018-12-19T12:04:42.131Z,3932
2018-12-19T12:05:42.111Z,3988
2018-12-19T12:06:42.106Z,4088
2018-12-19T12:07:42.104Z,4220
2018-12-19T12:08:42.075Z,4324
2018-12-19T12:09:42.063Z,4380
2018-12-19T12:10:42.049Z,4408
2018-12-19T12:11:47.905Z,4488
2018-12-19T12:12:42.020Z,4628
2018-12-19T12:13:42.663Z,4792
2018-12-19T12:14:41.999Z,4936
2018-12-19T12:15:41.986Z,5052
2018-12-19T12:16:41.967Z,5136
2018-12-19T12:17:41.956Z,5252
2018-12-19T12:18:41.941Z,5388
2018-12-19T12:19:41.928Z,5508
2018-12-19T12:20:41.916Z,5632
2018-12-19T12:21:41.908Z,5696
2018-12-19T12:22:43.610Z,5708
2018-12-19T12:23:47.243Z,5708
2018-12-19T12:24:41.878Z,5696
2018-12-19T12:25:42.101Z,5648
2018-12-19T12:26:41.836Z,5532
2018-12-19T12:27:41.828Z,5336
2018-12-19T12:28:41.812Z,5132
2018-12-19T12:29:41.801Z,4928
2018-12-19T12:30:41.784Z,4736
2018-12-19T12:31:41.776Z,4536
2018-12-19T12:32:41.767Z,4396
2018-12-19T12:33:41.746Z,4268
2018-12-19T12:34:41.732Z,4184
2018-12-19T12:35:41.728Z,4136
2018-12-19T12:36:41.713Z,4120
2018-12-19T12:37:41.698Z,4112
2018-12-19T12:38:41.684Z,4112
2018-12-19T12:39:41.679Z,4120
2018-12-19T12:40:41.659Z,4132
2018-12-19T12:41:41.652Z,4176
2018-12-19T12:42:41.641Z,4196
2018-12-19T12:43:41.625Z,4232
2018-12-19T12:44:56.320Z,4240
2018-12-19T12:45:41.595Z,4224
2018-12-19T12:46:41.342Z,4200
2018-12-19T12:47:41.571Z,4160
2018-12-19T12:48:41.557Z,4064
2018-12-19T12:49:41.550Z,3936
2018-12-19T12:50:41.607Z,3800
2018-12-19T12:51:41.523Z,3640
2018-12-19T12:52:41.504Z,3608
2018-12-19T12:53:41.494Z,3704
2018-12-19T12:54:41.482Z,3792
2018-12-19T12:55:41.473Z,3872
2018-12-19T12:56:41.457Z,3932
2018-12-19T12:57:41.447Z,3948
2018-12-19T12:58:41.427Z,3888
2018-12-19T12:59:41.410Z,3812
2018-12-19T13:00:42.991Z,3788
2018-12-19T13:01:41.387Z,3796
2018-12-19T13:02:41.396Z,3788
2018-12-19T13:03:41.363Z,3724
2018-12-19T13:04:41.353Z,3648
2018-12-19T13:05:41.334Z,3588
2018-12-19T13:06:41.371Z,3548
2018-12-19T13:07:41.311Z,3532
2018-12-19T13:08:41.298Z,3496
2018-12-19T13:09:41.283Z,3428
2018-12-19T13:10:43.564Z,3344
2018-12-19T13:11:41.258Z,3244
2018-12-19T13:12:41.243Z,3164
2018-12-19T13:13:41.235Z,3076
2018-12-19T13:14:41.222Z,3012
2018-12-19T13:15:41.204Z,2964
2018-12-19T13:16:41.194Z,2912
2018-12-19T13:17:41.182Z,2860
2018-12-19T13:18:41.172Z,2792
2018-12-19T13:19:41.163Z,2712
2018-12-19T13:20:41.147Z,2632
2018-12-19T13:21:41.134Z,2504
2018-12-19T13:22:41.116Z,2340
2018-12-19T13:23:41.111Z,2180
2018-12-19T13:24:41.096Z,2080
2018-12-19T13:25:41.075Z,2032
2018-12-19T13:26:41.077Z,2000
2018-12-19T13:27:41.063Z,1952
2018-12-19T13:28:41.046Z,1900
2018-12-19T13:29:41.025Z,1836
2018-12-19T13:30:41.020Z,1764
2018-12-19T13:31:41.006Z,1688
2018-12-19T13:32:40.988Z,1640
2018-12-19T13:33:41.528Z,1592
2018-12-19T13:34:40.968Z,1548
2018-12-19T13:35:40.950Z,1512
2018-12-19T13:36:40.934Z,1488
2018-12-19T13:37:40.925Z,1480
2018-12-19T13:38:40.913Z,1504
2018-12-19T13:39:40.895Z,1524
2018-12-19T13:40:40.884Z,1540
2018-12-19T13:41:40.867Z,1540
2018-12-19T13:42:40.861Z,1532
2018-12-19T13:43:40.861Z,1532
2018-12-19T13:44:40.829Z,1552
2018-12-19T13:45:40.819Z,1576
2018-12-19T13:46:40.812Z,1600
2018-12-19T13:47:40.802Z,1608
2018-12-19T13:48:40.780Z,1600
2018-12-19T13:49:40.762Z,1580
2018-12-19T13:50:40.765Z,1552
2018-12-19T13:51:40.737Z,1528
2018-12-19T13:52:40.733Z,1504
2018-12-19T13:53:40.712Z,1468
2018-12-19T13:54:40.701Z,1420
2018-12-19T13:55:40.687Z,1360
2018-12-19T13:56:40.669Z,1304
2018-12-19T13:57:40.659Z,1248
2018-12-19T13:58:40.899Z,1200
2018-12-19T13:59:40.634Z,1160
2018-12-19T14:00:40.621Z,1132